sensor_id;sensor_type;location;lat;lon;timestamp;pressure;altitude;pressure_sealevel;temperature;humidity
73516;BME280;61763;51.416;5.442;2023-02-10T00:01:13;103515.66;;;-1.45;100.00
73516;BME280;61763;51.416;5.442;2023-02-10T00:03:39;103515.00;;;-1.39;100.00
73516;BME280;61763;51.416;5.442;2023-02-10T00:06:06;103509.47;;;-1.46;100.00
73516;BME280;61763;51.416;5.442;2023-02-10T00:08:32;103514.41;;;-1.53;100.00
73516;BME280;61763;51.416;5.442;2023-02-10T00:11:07;103524.69;;;-1.61;100.00
73516;BME280;61763;51.416;5.442;2023-02-10T00:13:36;103528.94;;;-1.65;100.00
73516;BME280;61763;51.416;5.442;2023-02-10T00:16:03;103524.34;;;-1.69;100.00
73516;BME280;61763;51.416;5.442;2023-02-10T00:18:28;103531.09;;;-1.76;100.00
73516;BME280;61763;51.416;5.442;2023-02-10T00:20:54;103531.47;;;-1.87;100.00
73516;BME280;61763;51.416;5.442;2023-02-10T00:23:20;103539.91;;;-1.96;100.00
73516;BME280;61763;51.416;5.442;2023-02-10T00:25:45;103546.81;;;-2.00;100.00
73516;BME280;61763;51.416;5.442;2023-02-10T00:28:11;103544.88;;;-2.04;100.00
73516;BME280;61763;51.416;5.442;2023-02-10T00:30:37;103545.56;;;-2.08;100.00
73516;BME280;61763;51.416;5.442;2023-02-10T00:33:03;103550.56;;;-2.14;100.00
73516;BME280;61763;51.416;5.442;2023-02-10T00:35:28;103537.97;;;-2.20;100.00
73516;BME280;61763;51.416;5.442;2023-02-10T00:37:54;103547.44;;;-2.25;100.00
73516;BME280;61763;51.416;5.442;2023-02-10T00:40:19;103540.97;;;-2.32;100.00
73516;BME280;61763;51.416;5.442;2023-02-10T00:42:45;103543.47;;;-2.35;100.00
73516;BME280;61763;51.416;5.442;2023-02-10T00:45:10;103537.97;;;-2.39;100.00
73516;BME280;61763;51.416;5.442;2023-02-10T00:47:36;103542.97;;;-2.45;100.00
73516;BME280;61763;51.416;5.442;2023-02-10T00:50:03;103543.19;;;-2.41;100.00
73516;BME280;61763;51.416;5.442;2023-02-10T00:52:28;103553.63;;;-2.44;100.00
73516;BME280;61763;51.416;5.442;2023-02-10T00:54:53;103553.75;;;-2.41;100.00
73516;BME280;61763;51.416;5.442;2023-02-10T00:57:19;103550.13;;;-2.43;100.00
73516;BME280;61763;51.416;5.442;2023-02-10T00:59:44;103557.78;;;-2.49;100.00
73516;BME280;61763;51.416;5.442;2023-02-10T01:02:10;103555.91;;;-2.52;100.00
73516;BME280;61763;51.416;5.442;2023-02-10T01:04:35;103559.38;;;-2.53;100.00
73516;BME280;61763;51.416;5.442;2023-02-10T01:07:01;103553.81;;;-2.59;100.00
73516;BME280;61763;51.416;5.442;2023-02-10T01:09:26;103559.78;;;-2.63;100.00
73516;BME280;61763;51.416;5.442;2023-02-10T01:11:53;103559.63;;;-2.66;100.00
73516;BME280;61763;51.416;5.442;2023-02-10T01:14:20;103557.00;;;-2.66;100.00
73516;BME280;61763;51.416;5.442;2023-02-10T01:16:45;103558.78;;;-2.65;100.00
73516;BME280;61763;51.416;5.442;2023-02-10T01:19:11;103556.06;;;-2.67;100.00
73516;BME280;61763;51.416;5.442;2023-02-10T01:21:37;103561.13;;;-2.71;100.00
73516;BME280;61763;51.416;5.442;2023-02-10T01:24:04;103566.13;;;-2.77;100.00
73516;BME280;61763;51.416;5.442;2023-02-10T01:26:30;103570.44;;;-2.79;100.00
73516;BME280;61763;51.416;5.442;2023-02-10T01:28:55;103568.91;;;-2.74;100.00
73516;BME280;61763;51.416;5.442;2023-02-10T01:31:21;103567.41;;;-2.69;100.00
73516;BME280;61763;51.416;5.442;2023-02-10T01:33:52;103570.97;;;-2.69;100.00
73516;BME280;61763;51.416;5.442;2023-02-10T01:36:20;103579.63;;;-2.71;100.00
73516;BME280;61763;51.416;5.442;2023-02-10T01:38:46;103581.16;;;-2.76;100.00
73516;BME280;61763;51.416;5.442;2023-02-10T01:41:13;103585.38;;;-2.80;100.00
73516;BME280;61763;51.416;5.442;2023-02-10T01:44:02;103589.47;;;-2.87;100.00
73516;BME280;61763;51.416;5.442;2023-02-10T01:46:33;103597.25;;;-2.90;100.00
73516;BME280;61763;51.416;5.442;2023-02-10T01:49:08;103591.81;;;-2.93;100.00
73516;BME280;61763;51.416;5.442;2023-02-10T01:51:48;103594.47;;;-2.93;100.00
73516;BME280;61763;51.416;5.442;2023-02-10T01:54:22;103595.22;;;-2.95;100.00
73516;BME280;61763;51.416;5.442;2023-02-10T01:56:50;103591.41;;;-3.01;100.00
73516;BME280;61763;51.416;5.442;2023-02-10T01:59:17;103592.88;;;-3.07;100.00
73516;BME280;61763;51.416;5.442;2023-02-10T02:01:45;103583.88;;;-3.11;100.00
73516;BME280;61763;51.416;5.442;2023-02-10T02:04:11;103581.00;;;-3.15;100.00
73516;BME280;61763;51.416;5.442;2023-02-10T02:06:38;103576.53;;;-3.17;100.00
73516;BME280;61763;51.416;5.442;2023-02-10T02:09:04;103573.88;;;-3.17;100.00
73516;BME280;61763;51.416;5.442;2023-02-10T02:17:12;103556.00;;;-2.86;100.00
73516;BME280;61763;51.416;5.442;2023-02-10T02:39:42;103558.50;;;-2.14;100.00
73516;BME280;61763;51.416;5.442;2023-02-10T02:44:34;103575.72;;;-2.04;100.00
73516;BME280;61763;51.416;5.442;2023-02-10T02:50:06;103572.56;;;-2.15;100.00
73516;BME280;61763;51.416;5.442;2023-02-10T02:52:48;103571.41;;;-2.22;100.00
73516;BME280;61763;51.416;5.442;2023-02-10T03:00:41;103576.88;;;-2.37;100.00
73516;BME280;61763;51.416;5.442;2023-02-10T03:03:09;103563.19;;;-2.28;100.00
73516;BME280;61763;51.416;5.442;2023-02-10T03:05:35;103562.72;;;-2.19;100.00
73516;BME280;61763;51.416;5.442;2023-02-10T03:08:01;103559.13;;;-2.20;100.00
73516;BME280;61763;51.416;5.442;2023-02-10T03:10:26;103559.88;;;-2.22;100.00
73516;BME280;61763;51.416;5.442;2023-02-10T03:12:52;103551.28;;;-2.18;100.00
73516;BME280;61763;51.416;5.442;2023-02-10T03:15:17;103558.31;;;-2.19;100.00
73516;BME280;61763;51.416;5.442;2023-02-10T03:17:42;103561.66;;;-2.23;100.00
73516;BME280;61763;51.416;5.442;2023-02-10T03:20:08;103579.28;;;-2.23;100.00
73516;BME280;61763;51.416;5.442;2023-02-10T03:22:34;103576.00;;;-2.18;100.00
73516;BME280;61763;51.416;5.442;2023-02-10T03:24:59;103583.28;;;-2.12;100.00
73516;BME280;61763;51.416;5.442;2023-02-10T03:27:24;103585.66;;;-2.18;100.00
73516;BME280;61763;51.416;5.442;2023-02-10T03:29:50;103590.53;;;-2.27;100.00
73516;BME280;61763;51.416;5.442;2023-02-10T03:32:18;103593.44;;;-2.41;100.00
73516;BME280;61763;51.416;5.442;2023-02-10T03:34:43;103591.13;;;-2.53;100.00
73516;BME280;61763;51.416;5.442;2023-02-10T03:37:09;103597.69;;;-2.62;100.00
73516;BME280;61763;51.416;5.442;2023-02-10T03:39:35;103594.69;;;-2.70;100.00
73516;BME280;61763;51.416;5.442;2023-02-10T03:42:00;103600.63;;;-2.74;100.00
73516;BME280;61763;51.416;5.442;2023-02-10T03:44:25;103593.00;;;-2.68;100.00
73516;BME280;61763;51.416;5.442;2023-02-10T03:46:51;103593.06;;;-2.67;100.00
73516;BME280;61763;51.416;5.442;2023-02-10T03:49:16;103599.28;;;-2.66;100.00
73516;BME280;61763;51.416;5.442;2023-02-10T03:51:42;103605.97;;;-2.55;100.00
73516;BME280;61763;51.416;5.442;2023-02-10T03:54:07;103606.66;;;-2.41;100.00
73516;BME280;61763;51.416;5.442;2023-02-10T03:56:34;103608.22;;;-2.26;100.00
73516;BME280;61763;51.416;5.442;2023-02-10T03:59:01;103606.63;;;-2.23;100.00
73516;BME280;61763;51.416;5.442;2023-02-10T04:01:27;103606.97;;;-2.15;100.00
73516;BME280;61763;51.416;5.442;2023-02-10T04:03:52;103605.06;;;-2.00;100.00
73516;BME280;61763;51.416;5.442;2023-02-10T04:06:17;103609.75;;;-1.53;100.00
73516;BME280;61763;51.416;5.442;2023-02-10T04:08:43;103608.13;;;-1.30;100.00
73516;BME280;61763;51.416;5.442;2023-02-10T04:11:08;103607.03;;;-0.72;100.00
73516;BME280;61763;51.416;5.442;2023-02-10T04:13:35;103596.66;;;-0.43;100.00
73516;BME280;61763;51.416;5.442;2023-02-10T04:16:08;103584.25;;;-0.22;100.00
73516;BME280;61763;51.416;5.442;2023-02-10T04:18:34;103596.09;;;-0.12;100.00
73516;BME280;61763;51.416;5.442;2023-02-10T04:21:01;103596.00;;;0.09;100.00
73516;BME280;61763;51.416;5.442;2023-02-10T04:23:27;103588.31;;;0.17;100.00
73516;BME280;61763;51.416;5.442;2023-02-10T04:25:53;103601.94;;;0.26;100.00
73516;BME280;61763;51.416;5.442;2023-02-10T04:28:19;103590.00;;;0.39;100.00
73516;BME280;61763;51.416;5.442;2023-02-10T04:30:45;103604.38;;;0.44;100.00
73516;BME280;61763;51.416;5.442;2023-02-10T04:33:10;103605.50;;;0.51;100.00
73516;BME280;61763;51.416;5.442;2023-02-10T04:35:36;103593.44;;;0.61;100.00
73516;BME280;61763;51.416;5.442;2023-02-10T04:38:02;103594.34;;;0.61;100.00
73516;BME280;61763;51.416;5.442;2023-02-10T04:40:29;103589.06;;;0.63;100.00
73516;BME280;61763;51.416;5.442;2023-02-10T04:42:54;103594.69;;;0.72;100.00
73516;BME280;61763;51.416;5.442;2023-02-10T04:45:20;103593.91;;;0.75;100.00
73516;BME280;61763;51.416;5.442;2023-02-10T04:47:46;103595.94;;;0.82;100.00
73516;BME280;61763;51.416;5.442;2023-02-10T04:50:12;103588.44;;;0.96;100.00
73516;BME280;61763;51.416;5.442;2023-02-10T04:52:38;103585.69;;;0.94;100.00
73516;BME280;61763;51.416;5.442;2023-02-10T04:55:04;103583.03;;;0.94;100.00
73516;BME280;61763;51.416;5.442;2023-02-10T04:57:29;103591.16;;;0.97;100.00
73516;BME280;61763;51.416;5.442;2023-02-10T04:59:54;103592.09;;;0.99;100.00
73516;BME280;61763;51.416;5.442;2023-02-10T05:02:20;103599.28;;;1.02;100.00
73516;BME280;61763;51.416;5.442;2023-02-10T05:04:45;103597.41;;;0.99;100.00
73516;BME280;61763;51.416;5.442;2023-02-10T05:07:11;103593.91;;;1.00;100.00
73516;BME280;61763;51.416;5.442;2023-02-10T05:09:37;103599.31;;;1.03;100.00
73516;BME280;61763;51.416;5.442;2023-02-10T05:12:03;103595.16;;;1.12;100.00
73516;BME280;61763;51.416;5.442;2023-02-10T05:14:28;103595.94;;;1.08;100.00
73516;BME280;61763;51.416;5.442;2023-02-10T05:16:54;103603.13;;;1.12;100.00
73516;BME280;61763;51.416;5.442;2023-02-10T05:19:19;103596.97;;;1.13;100.00
73516;BME280;61763;51.416;5.442;2023-02-10T05:21:45;103594.09;;;1.07;100.00
73516;BME280;61763;51.416;5.442;2023-02-10T05:24:12;103612.78;;;1.08;100.00
73516;BME280;61763;51.416;5.442;2023-02-10T05:26:37;103609.56;;;1.18;100.00
73516;BME280;61763;51.416;5.442;2023-02-10T05:29:02;103614.13;;;1.22;100.00
73516;BME280;61763;51.416;5.442;2023-02-10T05:31:28;103605.28;;;1.23;100.00
73516;BME280;61763;51.416;5.442;2023-02-10T05:33:53;103614.00;;;1.18;100.00
73516;BME280;61763;51.416;5.442;2023-02-10T05:36:19;103606.00;;;1.18;100.00
73516;BME280;61763;51.416;5.442;2023-02-10T05:38:45;103607.94;;;1.23;100.00
73516;BME280;61763;51.416;5.442;2023-02-10T05:41:31;103605.34;;;1.25;100.00
73516;BME280;61763;51.416;5.442;2023-02-10T05:43:56;103599.91;;;1.22;100.00
73516;BME280;61763;51.416;5.442;2023-02-10T05:46:22;103606.41;;;1.30;100.00
73516;BME280;61763;51.416;5.442;2023-02-10T05:48:47;103598.38;;;1.29;100.00
73516;BME280;61763;51.416;5.442;2023-02-10T05:51:13;103602.03;;;1.32;100.00
73516;BME280;61763;51.416;5.442;2023-02-10T05:53:38;103617.94;;;1.31;100.00
73516;BME280;61763;51.416;5.442;2023-02-10T05:56:04;103619.72;;;1.30;100.00
73516;BME280;61763;51.416;5.442;2023-02-10T05:58:29;103631.09;;;1.26;100.00
73516;BME280;61763;51.416;5.442;2023-02-10T06:00:58;103622.22;;;1.26;100.00
73516;BME280;61763;51.416;5.442;2023-02-10T06:03:24;103619.66;;;1.29;100.00
73516;BME280;61763;51.416;5.442;2023-02-10T06:05:50;103618.09;;;1.35;100.00
73516;BME280;61763;51.416;5.442;2023-02-10T06:08:16;103610.28;;;1.40;100.00
73516;BME280;61763;51.416;5.442;2023-02-10T06:10:42;103618.97;;;1.34;100.00
73516;BME280;61763;51.416;5.442;2023-02-10T06:13:07;103613.63;;;1.34;100.00
73516;BME280;61763;51.416;5.442;2023-02-10T06:15:33;103614.44;;;1.32;100.00
73516;BME280;61763;51.416;5.442;2023-02-10T06:17:58;103614.69;;;1.39;100.00
73516;BME280;61763;51.416;5.442;2023-02-10T06:20:24;103612.72;;;1.34;100.00
73516;BME280;61763;51.416;5.442;2023-02-10T06:22:49;103625.38;;;1.41;100.00
73516;BME280;61763;51.416;5.442;2023-02-10T06:25:14;103617.47;;;1.44;100.00
73516;BME280;61763;51.416;5.442;2023-02-10T06:27:40;103616.25;;;1.33;100.00
73516;BME280;61763;51.416;5.442;2023-02-10T06:30:06;103629.75;;;1.39;100.00
73516;BME280;61763;51.416;5.442;2023-02-10T06:32:31;103627.00;;;1.36;100.00
73516;BME280;61763;51.416;5.442;2023-02-10T06:34:57;103620.97;;;1.42;100.00
73516;BME280;61763;51.416;5.442;2023-02-10T06:37:23;103617.47;;;1.44;100.00
73516;BME280;61763;51.416;5.442;2023-02-10T06:39:49;103613.97;;;1.45;100.00
73516;BME280;61763;51.416;5.442;2023-02-10T06:42:15;103617.56;;;1.47;100.00
73516;BME280;61763;51.416;5.442;2023-02-10T06:44:40;103618.53;;;1.49;100.00
73516;BME280;61763;51.416;5.442;2023-02-10T06:47:06;103622.19;;;1.53;100.00
73516;BME280;61763;51.416;5.442;2023-02-10T06:49:32;103632.75;;;1.50;100.00
73516;BME280;61763;51.416;5.442;2023-02-10T06:51:57;103625.78;;;1.53;100.00
73516;BME280;61763;51.416;5.442;2023-02-10T06:54:22;103622.97;;;1.49;100.00
73516;BME280;61763;51.416;5.442;2023-02-10T06:56:48;103624.91;;;1.54;100.00
73516;BME280;61763;51.416;5.442;2023-02-10T06:59:14;103613.50;;;1.58;100.00
73516;BME280;61763;51.416;5.442;2023-02-10T07:01:39;103614.25;;;1.54;100.00
73516;BME280;61763;51.416;5.442;2023-02-10T07:04:05;103617.09;;;1.59;100.00
73516;BME280;61763;51.416;5.442;2023-02-10T07:06:30;103620.66;;;1.60;100.00
73516;BME280;61763;51.416;5.442;2023-02-10T07:08:56;103626.16;;;1.66;100.00
73516;BME280;61763;51.416;5.442;2023-02-10T07:11:22;103634.22;;;1.69;100.00
73516;BME280;61763;51.416;5.442;2023-02-10T07:13:47;103633.38;;;1.70;100.00
73516;BME280;61763;51.416;5.442;2023-02-10T07:16:12;103636.91;;;1.69;100.00
73516;BME280;61763;51.416;5.442;2023-02-10T07:18:40;103641.38;;;1.70;100.00
73516;BME280;61763;51.416;5.442;2023-02-10T07:21:06;103656.34;;;1.66;100.00
73516;BME280;61763;51.416;5.442;2023-02-10T07:23:31;103659.91;;;1.67;100.00
73516;BME280;61763;51.416;5.442;2023-02-10T07:25:57;103655.53;;;1.69;100.00
73516;BME280;61763;51.416;5.442;2023-02-10T07:28:22;103647.63;;;1.72;100.00
73516;BME280;61763;51.416;5.442;2023-02-10T07:30:48;103648.94;;;1.85;100.00
73516;BME280;61763;51.416;5.442;2023-02-10T07:33:15;103638.28;;;1.85;100.00
73516;BME280;61763;51.416;5.442;2023-02-10T07:35:40;103648.13;;;1.87;100.00
73516;BME280;61763;51.416;5.442;2023-02-10T07:38:06;103656.06;;;1.86;100.00
73516;BME280;61763;51.416;5.442;2023-02-10T07:40:31;103654.44;;;1.91;100.00
73516;BME280;61763;51.416;5.442;2023-02-10T07:42:56;103647.22;;;1.87;100.00
73516;BME280;61763;51.416;5.442;2023-02-10T07:45:22;103650.13;;;1.95;100.00
73516;BME280;61763;51.416;5.442;2023-02-10T07:47:47;103652.13;;;2.02;100.00
73516;BME280;61763;51.416;5.442;2023-02-10T07:50:13;103655.59;;;1.99;100.00
73516;BME280;61763;51.416;5.442;2023-02-10T07:52:40;103662.56;;;1.96;100.00
73516;BME280;61763;51.416;5.442;2023-02-10T07:55:07;103653.16;;;2.07;100.00
73516;BME280;61763;51.416;5.442;2023-02-10T07:57:32;103645.97;;;2.04;100.00
73516;BME280;61763;51.416;5.442;2023-02-10T07:59:58;103659.41;;;2.09;100.00
73516;BME280;61763;51.416;5.442;2023-02-10T08:02:23;103656.00;;;2.13;100.00
73516;BME280;61763;51.416;5.442;2023-02-10T08:04:48;103656.81;;;2.10;100.00
73516;BME280;61763;51.416;5.442;2023-02-10T08:07:14;103659.75;;;2.20;100.00
73516;BME280;61763;51.416;5.442;2023-02-10T08:09:39;103654.25;;;2.14;100.00
73516;BME280;61763;51.416;5.442;2023-02-10T08:12:05;103654.53;;;2.23;100.00
73516;BME280;61763;51.416;5.442;2023-02-10T08:14:30;103663.28;;;2.19;100.00
73516;BME280;61763;51.416;5.442;2023-02-10T08:16:56;103677.66;;;2.24;100.00
73516;BME280;61763;51.416;5.442;2023-02-10T08:19:21;103669.78;;;2.28;100.00
73516;BME280;61763;51.416;5.442;2023-02-10T08:21:47;103674.34;;;2.33;100.00
73516;BME280;61763;51.416;5.442;2023-02-10T08:24:14;103679.19;;;2.46;100.00
73516;BME280;61763;51.416;5.442;2023-02-10T08:26:40;103677.13;;;2.36;100.00
73516;BME280;61763;51.416;5.442;2023-02-10T08:29:07;103672.94;;;2.45;100.00
73516;BME280;61763;51.416;5.442;2023-02-10T08:31:32;103680.97;;;2.47;100.00
73516;BME280;61763;51.416;5.442;2023-02-10T08:33:58;103668.78;;;2.55;100.00
73516;BME280;61763;51.416;5.442;2023-02-10T08:36:23;103673.34;;;2.59;100.00
73516;BME280;61763;51.416;5.442;2023-02-10T08:38:49;103668.41;;;2.75;100.00
73516;BME280;61763;51.416;5.442;2023-02-10T08:41:16;103667.41;;;2.70;100.00
73516;BME280;61763;51.416;5.442;2023-02-10T08:43:42;103677.94;;;2.65;100.00
73516;BME280;61763;51.416;5.442;2023-02-10T08:46:08;103678.88;;;2.67;100.00
73516;BME280;61763;51.416;5.442;2023-02-10T08:48:34;103691.38;;;2.68;100.00
73516;BME280;61763;51.416;5.442;2023-02-10T08:51:00;103695.84;;;2.71;100.00
73516;BME280;61763;51.416;5.442;2023-02-10T08:53:26;103700.53;;;2.79;100.00
73516;BME280;61763;51.416;5.442;2023-02-10T08:56:01;103704.44;;;2.91;100.00
73516;BME280;61763;51.416;5.442;2023-02-10T08:58:27;103703.69;;;2.96;100.00
73516;BME280;61763;51.416;5.442;2023-02-10T09:00:52;103695.00;;;3.04;100.00
73516;BME280;61763;51.416;5.442;2023-02-10T09:03:18;103688.31;;;3.20;100.00
73516;BME280;61763;51.416;5.442;2023-02-10T09:05:44;103673.03;;;3.14;100.00
73516;BME280;61763;51.416;5.442;2023-02-10T09:08:12;103662.44;;;3.17;100.00
73516;BME280;61763;51.416;5.442;2023-02-10T09:10:42;103664.13;;;3.15;100.00
73516;BME280;61763;51.416;5.442;2023-02-10T09:13:07;103673.16;;;3.19;100.00
73516;BME280;61763;51.416;5.442;2023-02-10T09:15:40;103671.47;;;3.24;100.00
73516;BME280;61763;51.416;5.442;2023-02-10T09:18:07;103667.16;;;3.27;100.00
73516;BME280;61763;51.416;5.442;2023-02-10T09:20:33;103669.78;;;3.26;100.00
73516;BME280;61763;51.416;5.442;2023-02-10T09:22:59;103667.88;;;3.22;100.00
73516;BME280;61763;51.416;5.442;2023-02-10T09:25:24;103670.63;;;3.25;100.00
73516;BME280;61763;51.416;5.442;2023-02-10T09:27:52;103680.59;;;3.32;100.00
73516;BME280;61763;51.416;5.442;2023-02-10T09:30:20;103681.72;;;3.40;100.00
73516;BME280;61763;51.416;5.442;2023-02-10T09:32:45;103672.69;;;3.37;100.00
73516;BME280;61763;51.416;5.442;2023-02-10T09:35:10;103682.59;;;3.41;100.00
73516;BME280;61763;51.416;5.442;2023-02-10T09:37:36;103672.38;;;3.59;100.00
73516;BME280;61763;51.416;5.442;2023-02-10T09:40:02;103674.75;;;3.85;100.00
73516;BME280;61763;51.416;5.442;2023-02-10T09:42:51;103678.34;;;3.87;100.00
73516;BME280;61763;51.416;5.442;2023-02-10T09:45:25;103678.50;;;3.93;100.00
73516;BME280;61763;51.416;5.442;2023-02-10T09:47:52;103683.06;;;3.99;100.00
73516;BME280;61763;51.416;5.442;2023-02-10T09:55:33;103672.19;;;4.31;100.00
73516;BME280;61763;51.416;5.442;2023-02-10T10:00:39;103668.00;;;4.44;100.00
73516;BME280;61763;51.416;5.442;2023-02-10T10:03:07;103678.09;;;4.57;100.00
73516;BME280;61763;51.416;5.442;2023-02-10T10:06:00;103666.03;;;4.79;100.00
73516;BME280;61763;51.416;5.442;2023-02-10T10:08:53;103667.50;;;4.63;100.00
73516;BME280;61763;51.416;5.442;2023-02-10T10:14:22;103671.78;;;4.53;100.00
73516;BME280;61763;51.416;5.442;2023-02-10T10:30:52;103672.56;;;4.95;100.00
73516;BME280;61763;51.416;5.442;2023-02-10T10:36:22;103669.44;;;5.21;100.00
73516;BME280;61763;51.416;5.442;2023-02-10T10:38:58;103660.88;;;5.42;100.00
73516;BME280;61763;51.416;5.442;2023-02-10T10:41:29;103665.53;;;5.54;100.00
73516;BME280;61763;51.416;5.442;2023-02-10T10:43:57;103667.53;;;5.67;100.00
73516;BME280;61763;51.416;5.442;2023-02-10T10:49:12;103662.34;;;5.79;100.00
73516;BME280;61763;51.416;5.442;2023-02-10T10:51:38;103658.22;;;6.00;100.00
73516;BME280;61763;51.416;5.442;2023-02-10T10:54:05;103660.03;;;6.01;100.00
73516;BME280;61763;51.416;5.442;2023-02-10T10:59:37;103657.69;;;6.27;100.00
73516;BME280;61763;51.416;5.442;2023-02-10T11:02:13;103647.13;;;6.41;100.00
73516;BME280;61763;51.416;5.442;2023-02-10T11:04:39;103642.00;;;6.61;100.00
73516;BME280;61763;51.416;5.442;2023-02-10T11:07:21;103642.00;;;6.61;100.00
73516;BME280;61763;51.416;5.442;2023-02-10T11:09:52;103633.94;;;6.61;99.60
73516;BME280;61763;51.416;5.442;2023-02-10T11:12:34;103637.41;;;6.51;99.84
73516;BME280;61763;51.416;5.442;2023-02-10T11:15:15;103620.50;;;6.58;99.34
73516;BME280;61763;51.416;5.442;2023-02-10T11:17:48;103615.22;;;6.69;100.00
73516;BME280;61763;51.416;5.442;2023-02-10T11:22:40;103620.53;;;6.63;97.52
73516;BME280;61763;51.416;5.442;2023-02-10T11:27:55;103617.13;;;6.81;95.31
73516;BME280;61763;51.416;5.442;2023-02-10T11:30:45;103607.38;;;6.89;96.33
73516;BME280;61763;51.416;5.442;2023-02-10T11:33:23;103610.19;;;7.03;94.58
73516;BME280;61763;51.416;5.442;2023-02-10T11:35:52;103612.06;;;7.15;93.74
73516;BME280;61763;51.416;5.442;2023-02-10T11:38:23;103608.56;;;7.24;94.18
73516;BME280;61763;51.416;5.442;2023-02-10T11:40:58;103616.63;;;7.24;94.38
73516;BME280;61763;51.416;5.442;2023-02-10T11:43:31;103619.34;;;7.30;90.46
73516;BME280;61763;51.416;5.442;2023-02-10T11:46:00;103617.69;;;7.46;88.20
73516;BME280;61763;51.416;5.442;2023-02-10T11:48:27;103613.09;;;7.34;87.84
73516;BME280;61763;51.416;5.442;2023-02-10T11:51:01;103605.09;;;7.40;85.50
73516;BME280;61763;51.416;5.442;2023-02-10T11:53:28;103605.94;;;7.36;86.17
73516;BME280;61763;51.416;5.442;2023-02-10T12:06:36;103580.00;;;7.38;83.51
73516;BME280;61763;51.416;5.442;2023-02-10T12:12:09;103571.16;;;7.53;84.20
73516;BME280;61763;51.416;5.442;2023-02-10T12:15:07;103570.16;;;7.37;83.22
73516;BME280;61763;51.416;5.442;2023-02-10T12:17:59;103568.41;;;7.44;81.66
73516;BME280;61763;51.416;5.442;2023-02-10T12:34:43;103563.09;;;7.54;80.01
73516;BME280;61763;51.416;5.442;2023-02-10T12:37:22;103560.50;;;7.70;79.96
73516;BME280;61763;51.416;5.442;2023-02-10T12:53:48;103547.25;;;8.22;76.03
73516;BME280;61763;51.416;5.442;2023-02-10T12:56:23;103540.97;;;8.28;74.46
73516;BME280;61763;51.416;5.442;2023-02-10T12:58:53;103549.09;;;8.44;75.61
73516;BME280;61763;51.416;5.442;2023-02-10T13:01:42;103535.69;;;8.64;72.24
73516;BME280;61763;51.416;5.442;2023-02-10T13:04:24;103535.69;;;8.61;70.65
73516;BME280;61763;51.416;5.442;2023-02-10T13:07:02;103530.31;;;8.48;71.04
73516;BME280;61763;51.416;5.442;2023-02-10T13:10:16;103541.97;;;8.53;72.27
73516;BME280;61763;51.416;5.442;2023-02-10T13:12:36;103556.34;;;8.57;73.41
73516;BME280;61763;51.416;5.442;2023-02-10T13:15:04;103539.31;;;8.67;73.34
73516;BME280;61763;51.416;5.442;2023-02-10T13:17:49;103535.69;;;8.64;72.80
73516;BME280;61763;51.416;5.442;2023-02-10T13:25:49;103522.22;;;8.96;72.46
73516;BME280;61763;51.416;5.442;2023-02-10T13:28:27;103521.34;;;8.72;73.24
73516;BME280;61763;51.416;5.442;2023-02-10T13:31:14;103512.34;;;8.59;74.08
73516;BME280;61763;51.416;5.442;2023-02-10T13:36:21;103506.09;;;8.56;75.23
73516;BME280;61763;51.416;5.442;2023-02-10T13:38:58;103501.59;;;8.63;75.89
73516;BME280;61763;51.416;5.442;2023-02-10T13:41:35;103502.50;;;8.60;76.71
73516;BME280;61763;51.416;5.442;2023-02-10T13:49:33;103512.34;;;8.64;76.54
73516;BME280;61763;51.416;5.442;2023-02-10T13:52:05;103505.16;;;8.49;77.97
73516;BME280;61763;51.416;5.442;2023-02-10T13:54:33;103506.94;;;8.41;78.12
73516;BME280;61763;51.416;5.442;2023-02-10T13:57:01;103499.78;;;8.48;78.59
73516;BME280;61763;51.416;5.442;2023-02-10T13:59:38;103503.38;;;8.54;78.98
73516;BME280;61763;51.416;5.442;2023-02-10T14:02:22;103502.50;;;8.58;78.21
73516;BME280;61763;51.416;5.442;2023-02-10T14:04:51;103507.81;;;8.38;79.31
73516;BME280;61763;51.416;5.442;2023-02-10T14:12:27;103502.44;;;8.34;82.67
73516;BME280;61763;51.416;5.442;2023-02-10T14:14:53;103504.19;;;8.19;82.39
73516;BME280;61763;51.416;5.442;2023-02-10T14:17:26;103502.38;;;8.03;82.79
73516;BME280;61763;51.416;5.442;2023-02-10T14:19:58;103507.69;;;7.86;82.54
73516;BME280;61763;51.416;5.442;2023-02-10T14:22:33;103504.00;;;7.62;83.41
73516;BME280;61763;51.416;5.442;2023-02-10T14:27:54;103500.19;;;7.17;86.47
73516;BME280;61763;51.416;5.442;2023-02-10T14:30:41;103497.31;;;6.88;88.56
73516;BME280;61763;51.416;5.442;2023-02-10T14:33:26;103503.41;;;6.73;90.22
73516;BME280;61763;51.416;5.442;2023-02-10T14:35:54;103502.56;;;6.77;91.77
73516;BME280;61763;51.416;5.442;2023-02-10T14:38:25;103509.75;;;6.79;91.17
73516;BME280;61763;51.416;5.442;2023-02-10T14:40:52;103503.50;;;6.79;92.08
73516;BME280;61763;51.416;5.442;2023-02-10T14:43:22;103500.06;;;7.01;92.87
73516;BME280;61763;51.416;5.442;2023-02-10T14:45:49;103501.94;;;7.12;91.73
73516;BME280;61763;51.416;5.442;2023-02-10T14:48:15;103499.16;;;6.98;91.75
73516;BME280;61763;51.416;5.442;2023-02-10T14:51:06;103508.03;;;6.88;92.56
73516;BME280;61763;51.416;5.442;2023-02-10T14:53:34;103497.19;;;6.75;93.49
73516;BME280;61763;51.416;5.442;2023-02-10T14:56:02;103504.38;;;6.78;94.12
73516;BME280;61763;51.416;5.442;2023-02-10T14:58:28;103515.09;;;6.76;94.26
73516;BME280;61763;51.416;5.442;2023-02-10T15:01:08;103506.16;;;6.76;94.01
73516;BME280;61763;51.416;5.442;2023-02-10T15:03:35;103511.44;;;6.66;94.41
73516;BME280;61763;51.416;5.442;2023-02-10T15:06:01;103517.63;;;6.61;95.53
73516;BME280;61763;51.416;5.442;2023-02-10T15:08:34;103513.06;;;6.51;95.88
73516;BME280;61763;51.416;5.442;2023-02-10T15:11:04;103519.34;;;6.49;96.86
73516;BME280;61763;51.416;5.442;2023-02-10T15:13:38;103521.97;;;6.43;96.32
73516;BME280;61763;51.416;5.442;2023-02-10T15:16:08;103517.34;;;6.30;96.55